createdAt,value
2023-02-09T00:01:19.699Z,55.29
2023-02-09T00:03:46.961Z,55.60
2023-02-09T00:06:16.766Z,54.72
2023-02-09T00:08:44.326Z,55.45
2023-02-09T00:11:45.828Z,55.94
2023-02-09T00:14:14.276Z,55.81
2023-02-09T00:16:41.730Z,55.73
2023-02-09T00:19:09.033Z,55.30
2023-02-09T00:21:36.191Z,54.85
2023-02-09T00:24:03.245Z,55.00
2023-02-09T00:26:30.369Z,55.62
2023-02-09T00:28:57.310Z,55.99
2023-02-09T00:31:24.508Z,55.92
2023-02-09T00:33:51.460Z,56.40
2023-02-09T00:36:18.423Z,56.31
2023-02-09T00:38:45.536Z,56.61
2023-02-09T00:41:13.514Z,56.49
2023-02-09T00:43:40.844Z,56.48
2023-02-09T00:46:08.363Z,56.77
2023-02-09T00:48:36.796Z,56.34
2023-02-09T00:51:03.864Z,56.40
2023-02-09T00:53:30.979Z,56.25
2023-02-09T00:56:00.106Z,56.57
2023-02-09T00:58:27.123Z,56.46
2023-02-09T01:00:54.196Z,56.11
2023-02-09T01:03:21.163Z,55.59
2023-02-09T01:05:48.086Z,56.62
2023-02-09T01:08:15.106Z,56.64
2023-02-09T01:10:42.076Z,56.89
2023-02-09T01:13:09.114Z,56.53
2023-02-09T01:15:39.957Z,56.94
2023-02-09T01:18:07.902Z,57.05
2023-02-09T01:20:36.009Z,57.12
2023-02-09T01:23:02.841Z,56.88
2023-02-09T01:25:30.639Z,56.92
2023-02-09T01:27:57.798Z,57.01
2023-02-09T01:30:24.981Z,56.96
2023-02-09T01:32:51.960Z,56.81
2023-02-09T01:35:19.838Z,56.94
2023-02-09T01:37:46.812Z,56.98
2023-02-09T01:40:14.782Z,57.23
2023-02-09T01:42:41.891Z,57.24
2023-02-09T01:45:20.795Z,57.75
2023-02-09T01:47:55.366Z,57.33
2023-02-09T01:50:24.008Z,57.24
2023-02-09T01:52:51.242Z,57.15
2023-02-09T01:55:22.955Z,57.40
2023-02-09T01:57:56.522Z,57.14
2023-02-09T02:00:23.711Z,57.44
2023-02-09T02:02:56.095Z,58.76
2023-02-09T02:05:25.248Z,58.41
2023-02-09T02:08:09.358Z,58.40
2023-02-09T02:10:36.304Z,57.79
2023-02-09T02:13:03.783Z,58.08
2023-02-09T02:15:48.366Z,58.56
2023-02-09T02:18:27.447Z,57.99
2023-02-09T02:21:07.553Z,58.08
2023-02-09T02:24:05.175Z,58.35
2023-02-09T02:26:45.653Z,58.24
2023-02-09T02:29:28.208Z,58.01
2023-02-09T02:32:24.306Z,58.53
2023-02-09T02:35:22.463Z,58.25
2023-02-09T02:37:52.217Z,58.35
2023-02-09T02:40:40.665Z,58.37
2023-02-09T02:43:40.226Z,58.24
2023-02-09T02:46:16.948Z,58.26
2023-02-09T02:49:01.353Z,58.27
2023-02-09T02:51:38.241Z,58.27
2023-02-09T02:54:09.702Z,58.61
2023-02-09T02:56:40.725Z,58.16
2023-02-09T02:59:12.801Z,57.98
2023-02-09T03:01:55.852Z,58.02
2023-02-09T03:04:24.057Z,58.19
2023-02-09T03:06:50.921Z,58.67
2023-02-09T03:09:18.830Z,58.24
2023-02-09T03:11:49.715Z,58.66
2023-02-09T03:14:33.586Z,58.65
2023-02-09T03:17:32.632Z,58.61
2023-02-09T03:20:11.485Z,58.41
2023-02-09T03:22:47.554Z,58.23
2023-02-09T03:25:27.844Z,58.27
2023-02-09T03:28:09.058Z,58.25
2023-02-09T03:30:42.260Z,57.78
2023-02-09T03:33:24.198Z,58.33
2023-02-09T03:35:54.962Z,58.18
2023-02-09T03:38:22.455Z,58.57
2023-02-09T03:40:49.413Z,58.30
2023-02-09T03:43:16.414Z,58.62
2023-02-09T03:45:43.414Z,58.66
2023-02-09T03:48:10.358Z,58.46
2023-02-09T03:50:37.926Z,58.58
2023-02-09T03:53:08.146Z,58.80
2023-02-09T03:55:36.004Z,58.64
2023-02-09T03:58:03.011Z,58.39
2023-02-09T04:00:30.031Z,58.35
2023-02-09T04:02:57.063Z,58.58
2023-02-09T04:05:24.133Z,58.28
2023-02-09T04:07:51.178Z,58.64
2023-02-09T04:10:18.190Z,58.49
2023-02-09T04:12:45.100Z,58.77
2023-02-09T04:15:12.111Z,58.58
2023-02-09T04:17:39.071Z,58.55
2023-02-09T04:20:06.368Z,58.68
2023-02-09T04:22:33.362Z,58.39
2023-02-09T04:25:00.356Z,58.22
2023-02-09T04:27:28.610Z,58.28
2023-02-09T04:29:55.553Z,58.39
2023-02-09T04:32:22.526Z,58.19
2023-02-09T04:34:49.497Z,57.98
2023-02-09T04:37:16.423Z,58.04
2023-02-09T04:39:43.369Z,58.12
2023-02-09T04:42:10.276Z,58.08
2023-02-09T04:44:37.229Z,57.71
2023-02-09T04:47:04.194Z,57.72
2023-02-09T04:49:31.217Z,58.00
2023-02-09T04:51:58.184Z,58.04
2023-02-09T04:54:25.193Z,58.12
2023-02-09T04:57:12.095Z,58.12
2023-02-09T04:59:40.813Z,58.23
2023-02-09T05:02:08.856Z,58.03
2023-02-09T05:04:35.723Z,58.31
2023-02-09T05:07:02.822Z,58.15
2023-02-09T05:09:30.175Z,58.05
2023-02-09T05:11:57.244Z,57.98
2023-02-09T05:14:24.339Z,58.34
2023-02-09T05:16:51.657Z,57.92
2023-02-09T05:19:18.996Z,58.05
2023-02-09T05:21:46.260Z,58.30
2023-02-09T05:24:13.508Z,57.83
2023-02-09T05:26:40.778Z,57.73
2023-02-09T05:29:08.069Z,57.78
2023-02-09T05:31:35.458Z,58.10
2023-02-09T05:34:02.895Z,57.93
2023-02-09T05:36:30.175Z,58.07
2023-02-09T05:38:57.618Z,58.06
2023-02-09T05:41:43.178Z,58.08
2023-02-09T05:44:10.426Z,58.20
2023-02-09T05:46:37.577Z,58.23
2023-02-09T05:49:04.823Z,58.43
2023-02-09T05:51:32.064Z,58.37
2023-02-09T05:53:59.298Z,59.30
2023-02-09T05:56:26.614Z,59.37
2023-02-09T05:58:53.655Z,59.96
2023-02-09T06:01:20.894Z,59.25
2023-02-09T06:03:48.318Z,58.82
2023-02-09T06:06:15.534Z,59.06
2023-02-09T06:08:42.700Z,58.65
2023-02-09T06:11:10.059Z,58.41
2023-02-09T06:13:37.331Z,58.56
2023-02-09T06:16:04.682Z,58.49
2023-02-09T06:18:32.010Z,58.34
2023-02-09T06:20:59.215Z,58.06
2023-02-09T06:23:26.412Z,58.23
2023-02-09T06:25:53.742Z,58.29
2023-02-09T06:28:21.448Z,58.16
2023-02-09T06:30:53.301Z,58.18
2023-02-09T06:33:20.997Z,58.18
2023-02-09T06:35:48.857Z,58.23
2023-02-09T06:38:17.013Z,58.18
2023-02-09T06:40:44.435Z,57.79
2023-02-09T06:43:11.615Z,57.64
2023-02-09T06:45:40.062Z,57.75
2023-02-09T06:48:08.333Z,57.64
2023-02-09T06:50:37.374Z,57.29
2023-02-09T06:53:05.815Z,57.17
2023-02-09T06:55:34.178Z,57.54
2023-02-09T06:58:01.860Z,57.59
2023-02-09T07:00:29.255Z,57.52
2023-02-09T07:02:56.489Z,57.41
2023-02-09T07:05:23.777Z,57.66
2023-02-09T07:07:51.215Z,57.53
2023-02-09T07:10:19.666Z,56.99
2023-02-09T07:12:46.859Z,57.07
2023-02-09T07:15:16.093Z,56.83
2023-02-09T07:17:43.402Z,56.73
2023-02-09T07:20:11.139Z,57.23
2023-02-09T07:22:38.510Z,57.31
2023-02-09T07:25:06.214Z,56.80
2023-02-09T07:27:33.464Z,56.93
2023-02-09T07:30:01.361Z,56.63
2023-02-09T07:32:28.578Z,56.18
2023-02-09T07:34:55.778Z,55.61
2023-02-09T07:37:22.942Z,55.41
2023-02-09T07:39:50.296Z,55.60
2023-02-09T07:42:17.732Z,55.38
2023-02-09T07:44:57.774Z,55.39
2023-02-09T07:47:25.050Z,55.19
2023-02-09T07:49:52.297Z,54.94
2023-02-09T07:52:19.599Z,55.44
2023-02-09T07:54:46.853Z,55.38
2023-02-09T07:57:14.257Z,55.50
2023-02-09T07:59:41.540Z,55.05
2023-02-09T08:02:19.256Z,54.52
2023-02-09T08:04:46.750Z,55.23
2023-02-09T08:07:13.938Z,54.94
2023-02-09T08:09:41.209Z,54.95
2023-02-09T08:12:09.103Z,54.85
2023-02-09T08:14:48.628Z,55.12
2023-02-09T08:17:24.576Z,54.57
2023-02-09T08:20:06.978Z,54.42
2023-02-09T08:22:38.856Z,54.23
2023-02-09T08:25:07.070Z,54.06
2023-02-09T08:27:35.651Z,53.54
2023-02-09T08:30:03.386Z,54.01
2023-02-09T08:32:30.616Z,54.27
2023-02-09T08:34:57.900Z,53.74
2023-02-09T08:37:25.171Z,53.79
2023-02-09T08:39:52.412Z,53.45
2023-02-09T08:42:19.699Z,53.35
2023-02-09T08:44:47.052Z,52.85
2023-02-09T08:47:14.182Z,52.79
2023-02-09T08:49:42.030Z,52.75
2023-02-09T08:52:09.500Z,52.64
2023-02-09T08:54:36.776Z,52.95
2023-02-09T08:57:04.297Z,52.82
2023-02-09T08:59:31.576Z,51.92
2023-02-09T09:01:58.983Z,51.48
2023-02-09T09:04:26.224Z,50.36
2023-02-09T09:06:55.425Z,48.97
2023-02-09T09:09:22.817Z,46.82
2023-02-09T09:11:50.108Z,47.71
2023-02-09T09:14:17.389Z,47.18
2023-02-09T09:16:44.757Z,47.74
2023-02-09T09:19:12.020Z,45.34
2023-02-09T09:21:39.270Z,46.00
2023-02-09T09:24:06.577Z,42.35
2023-02-09T09:26:35.345Z,44.83
2023-02-09T09:29:02.629Z,42.42
2023-02-09T09:31:31.139Z,41.60
2023-02-09T09:33:58.376Z,42.18
2023-02-09T09:36:25.656Z,43.02
2023-02-09T09:38:53.432Z,42.19
2023-02-09T09:41:26.022Z,41.51
2023-02-09T09:43:54.938Z,42.18
2023-02-09T09:46:36.971Z,40.10
2023-02-09T09:49:05.785Z,40.19
2023-02-09T09:52:05.340Z,40.33
2023-02-09T09:54:35.465Z,40.31
2023-02-09T09:57:03.576Z,39.11
2023-02-09T09:59:38.264Z,37.62
2023-02-09T10:02:32.261Z,38.18
2023-02-09T10:05:22.764Z,37.23
2023-02-09T10:08:12.816Z,37.36
2023-02-09T10:10:57.418Z,36.33
2023-02-09T10:13:35.776Z,36.46
2023-02-09T10:16:03.740Z,36.70
2023-02-09T10:18:34.698Z,36.96
2023-02-09T10:21:06.587Z,37.52
2023-02-09T10:23:46.614Z,35.53
2023-02-09T10:26:18.375Z,35.51
2023-02-09T10:28:48.779Z,35.02
2023-02-09T10:31:25.559Z,35.17
2023-02-09T10:34:09.496Z,34.45
2023-02-09T10:36:55.263Z,34.36
2023-02-09T10:39:30.701Z,34.05
2023-02-09T10:42:14.612Z,34.31
2023-02-09T10:44:42.658Z,33.02
2023-02-09T10:47:28.852Z,33.44
2023-02-09T10:50:11.390Z,32.88
2023-02-09T10:53:14.338Z,32.72
2023-02-09T10:55:42.611Z,32.29
2023-02-09T10:58:09.619Z,32.04
2023-02-09T11:01:05.990Z,31.67
2023-02-09T11:03:33.770Z,32.08
2023-02-09T11:06:07.212Z,31.66
2023-02-09T11:08:45.296Z,31.38
2023-02-09T11:11:23.656Z,31.22
2023-02-09T11:13:50.934Z,31.30
2023-02-09T11:16:45.557Z,30.92
2023-02-09T11:19:31.254Z,30.76
2023-02-09T11:22:30.895Z,31.11
2023-02-09T11:25:33.102Z,30.03
2023-02-09T11:28:12.190Z,30.37
2023-02-09T11:31:00.488Z,30.69
2023-02-09T11:33:41.666Z,30.55
2023-02-09T11:36:24.987Z,30.66
2023-02-09T11:39:02.060Z,29.79
2023-02-09T11:42:09.296Z,29.86
2023-02-09T11:44:40.220Z,29.52
2023-02-09T11:47:14.504Z,29.09
2023-02-09T11:49:48.987Z,28.10
2023-02-09T11:52:30.223Z,28.58
2023-02-09T11:55:03.106Z,28.48
2023-02-09T11:57:50.176Z,28.04
2023-02-09T12:00:24.974Z,27.71
2023-02-09T12:13:58.415Z,27.56
2023-02-09T12:16:36.883Z,27.47
2023-02-09T12:19:04.775Z,27.84
2023-02-09T12:21:34.894Z,27.65
2023-02-09T12:24:02.535Z,28.18
2023-02-09T12:26:55.655Z,27.69
2023-02-09T12:29:38.694Z,27.24
2023-02-09T12:32:06.578Z,27.63
2023-02-09T12:34:51.716Z,27.11
2023-02-09T12:37:28.027Z,27.32
2023-02-09T12:40:07.531Z,26.51
2023-02-09T12:42:42.209Z,26.48
2023-02-09T12:45:34.073Z,25.84
2023-02-09T12:48:21.689Z,25.71
2023-02-09T12:50:52.980Z,25.31
2023-02-09T12:53:23.522Z,25.11
2023-02-09T12:56:13.970Z,23.96
2023-02-09T12:58:44.235Z,23.68
2023-02-09T13:01:13.976Z,24.44
2023-02-09T13:03:51.034Z,23.73
2023-02-09T13:06:45.853Z,22.99
2023-02-09T13:09:23.093Z,22.78
2023-02-09T13:11:53.424Z,22.81
2023-02-09T13:14:22.694Z,21.09
2023-02-09T13:17:15.102Z,20.12
2023-02-09T13:19:58.020Z,19.29
2023-02-09T13:22:47.657Z,18.61
2023-02-09T13:25:35.264Z,17.36
2023-02-09T13:28:26.871Z,16.86
2023-02-09T13:30:54.578Z,16.78
2023-02-09T13:33:30.906Z,16.71
2023-02-09T13:36:00.890Z,15.32
2023-02-09T13:38:33.104Z,15.14
2023-02-09T13:41:00.986Z,15.45
2023-02-09T13:43:32.018Z,14.10
2023-02-09T13:46:00.869Z,13.86
2023-02-09T13:48:34.219Z,13.57
2023-02-09T13:51:18.968Z,12.69
2023-02-09T13:53:58.569Z,13.24
2023-02-09T13:56:26.457Z,12.52
2023-02-09T13:58:54.496Z,12.81
2023-02-09T14:01:32.148Z,13.60
2023-02-09T14:04:23.146Z,14.79
2023-02-09T14:06:58.668Z,15.16
2023-02-09T14:09:33.458Z,16.64
2023-02-09T14:12:08.128Z,18.36
2023-02-09T14:14:59.944Z,18.77
2023-02-09T14:17:39.121Z,19.18
2023-02-09T14:20:22.705Z,19.96
2023-02-09T14:22:59.515Z,20.46
2023-02-09T14:25:29.225Z,20.71
2023-02-09T14:27:57.501Z,21.54
2023-02-09T14:30:32.336Z,21.80
2023-02-09T14:33:03.652Z,21.95
2023-02-09T14:35:41.772Z,22.49
2023-02-09T14:38:27.770Z,22.42
2023-02-09T14:40:55.013Z,23.08
2023-02-09T14:43:25.336Z,23.21
2023-02-09T14:46:01.962Z,22.87
2023-02-09T14:48:31.609Z,23.29
2023-02-09T14:51:02.095Z,23.14
2023-02-09T14:53:32.374Z,23.06
2023-02-09T14:55:59.875Z,24.04
2023-02-09T14:58:29.865Z,24.29
2023-02-09T15:01:00.777Z,24.41
2023-02-09T15:03:28.882Z,25.18
2023-02-09T15:06:04.296Z,25.68
2023-02-09T15:08:35.578Z,25.72
2023-02-09T15:11:28.975Z,25.83
2023-02-09T15:14:04.258Z,25.83
2023-02-09T15:16:32.546Z,26.11
2023-02-09T15:18:59.640Z,26.11
2023-02-09T15:21:26.818Z,26.11
2023-02-09T15:23:54.133Z,26.11
2023-02-09T15:26:23.092Z,25.94
2023-02-09T15:28:50.611Z,25.93
2023-02-09T15:31:17.854Z,26.62
2023-02-09T15:33:45.217Z,26.12
2023-02-09T15:36:19.986Z,25.90
2023-02-09T15:38:47.811Z,25.90
2023-02-09T15:41:35.834Z,26.38
2023-02-09T15:44:40.220Z,26.56
2023-02-09T15:47:25.741Z,26.63
2023-02-09T15:49:53.050Z,26.42
2023-02-09T15:52:20.478Z,26.63
2023-02-09T15:54:51.576Z,26.89
2023-02-09T15:57:19.292Z,26.79
2023-02-09T15:59:46.697Z,26.98
2023-02-09T16:02:15.337Z,27.49
2023-02-09T16:04:43.388Z,27.63
2023-02-09T16:07:14.690Z,27.77
2023-02-09T16:09:43.861Z,28.12
2023-02-09T16:12:12.076Z,28.48
2023-02-09T16:14:39.254Z,28.44
2023-02-09T16:17:07.991Z,28.41
2023-02-09T16:19:35.330Z,28.40
2023-02-09T16:22:06.699Z,28.76
2023-02-09T16:24:41.449Z,29.00
2023-02-09T16:27:16.492Z,29.90
2023-02-09T16:29:43.866Z,30.03
2023-02-09T16:32:17.948Z,30.80
2023-02-09T16:34:45.485Z,31.37
2023-02-09T16:37:17.308Z,31.41
2023-02-09T16:39:45.456Z,31.55
2023-02-09T16:42:14.558Z,32.15
2023-02-09T16:44:42.712Z,32.24
2023-02-09T16:47:18.500Z,32.87
2023-02-09T16:50:09.656Z,32.29
2023-02-09T16:52:36.899Z,32.81
2023-02-09T16:55:06.859Z,32.74
2023-02-09T16:57:34.032Z,32.76
2023-02-09T17:00:01.294Z,33.22
2023-02-09T17:02:33.311Z,34.55
2023-02-09T17:05:02.216Z,34.56
2023-02-09T17:07:39.806Z,34.62
2023-02-09T17:10:18.096Z,35.10
2023-02-09T17:12:45.744Z,35.11
2023-02-09T17:15:28.546Z,35.32
2023-02-09T17:18:01.820Z,35.01
2023-02-09T17:20:36.351Z,34.86
2023-02-09T17:23:03.784Z,34.60
2023-02-09T17:25:30.982Z,34.63
2023-02-09T17:27:58.255Z,34.36
2023-02-09T17:30:25.586Z,34.68
2023-02-09T17:33:00.418Z,34.75
2023-02-09T17:35:53.105Z,34.39
2023-02-09T17:38:30.798Z,34.77
2023-02-09T17:41:00.114Z,34.64
2023-02-09T17:43:27.935Z,34.71
2023-02-09T17:45:56.026Z,35.04
2023-02-09T17:48:23.495Z,35.12
2023-02-09T17:50:53.144Z,35.11
2023-02-09T17:53:23.496Z,35.10
2023-02-09T17:55:51.897Z,34.86
2023-02-09T17:58:19.332Z,35.10
2023-02-09T18:00:46.937Z,35.13
2023-02-09T18:03:23.238Z,35.07
2023-02-09T18:06:01.961Z,35.19
2023-02-09T18:08:29.460Z,35.64
2023-02-09T18:10:59.020Z,35.34
2023-02-09T18:13:27.639Z,35.16
2023-02-09T18:15:55.564Z,35.34
2023-02-09T18:18:24.368Z,35.21
2023-02-09T18:20:52.105Z,35.54
2023-02-09T18:23:19.304Z,35.57
2023-02-09T18:25:48.024Z,35.42
2023-02-09T18:28:16.752Z,35.75
2023-02-09T18:30:44.998Z,35.69
2023-02-09T18:33:12.774Z,35.95
2023-02-09T18:35:45.048Z,35.46
2023-02-09T18:38:15.136Z,35.77
2023-02-09T18:40:42.500Z,35.97
2023-02-09T18:43:12.612Z,35.77
2023-02-09T18:45:39.810Z,35.84
2023-02-09T18:48:07.171Z,36.17
2023-02-09T18:50:34.500Z,36.29
2023-02-09T18:53:03.825Z,36.36
2023-02-09T18:55:33.210Z,36.14
2023-02-09T18:58:02.652Z,36.40
2023-02-09T19:00:30.329Z,36.44
2023-02-09T19:02:58.461Z,37.24
2023-02-09T19:05:30.695Z,37.63
2023-02-09T19:07:59.828Z,37.59
2023-02-09T19:10:27.335Z,37.39
2023-02-09T19:12:55.698Z,37.56
2023-02-09T19:15:26.008Z,38.32
2023-02-09T19:17:55.778Z,38.16
2023-02-09T19:20:27.356Z,38.69
2023-02-09T19:22:55.299Z,38.54
2023-02-09T19:25:24.565Z,38.58
2023-02-09T19:27:53.304Z,38.80
2023-02-09T19:30:25.240Z,38.45
2023-02-09T19:32:54.461Z,38.28
2023-02-09T19:35:23.153Z,38.79
2023-02-09T19:37:54.660Z,39.04
2023-02-09T19:40:28.657Z,39.31
2023-02-09T19:42:56.701Z,39.76
2023-02-09T19:45:24.384Z,40.33
2023-02-09T19:47:51.617Z,40.25
2023-02-09T19:50:18.981Z,40.13
2023-02-09T19:52:47.744Z,40.41
2023-02-09T19:55:15.778Z,40.36
2023-02-09T19:57:43.259Z,40.12
2023-02-09T20:00:15.138Z,40.34
2023-02-09T20:02:42.355Z,40.42
2023-02-09T20:05:09.666Z,40.38
2023-02-09T20:07:37.377Z,40.67
2023-02-09T20:10:05.299Z,40.81
2023-02-09T20:12:32.749Z,41.10
2023-02-09T20:15:00.148Z,40.59
2023-02-09T20:17:28.201Z,40.79
2023-02-09T20:19:55.301Z,41.34
2023-02-09T20:22:22.540Z,40.90
2023-02-09T20:24:50.068Z,40.95
2023-02-09T20:27:19.036Z,41.03
2023-02-09T20:29:46.177Z,41.71
2023-02-09T20:32:13.510Z,42.26
2023-02-09T20:34:40.735Z,42.82
2023-02-09T20:37:08.056Z,42.85
2023-02-09T20:39:35.297Z,42.70
2023-02-09T20:42:21.294Z,42.65
2023-02-09T20:45:06.856Z,42.63
2023-02-09T20:47:34.099Z,42.41
2023-02-09T20:50:01.374Z,42.30
2023-02-09T20:52:29.696Z,42.47
2023-02-09T20:54:57.638Z,42.71
2023-02-09T20:57:29.698Z,42.15
2023-02-09T21:00:01.014Z,42.30
2023-02-09T21:02:28.377Z,42.38
2023-02-09T21:04:57.212Z,42.32
2023-02-09T21:07:25.657Z,42.73
2023-02-09T21:09:54.420Z,42.29
2023-02-09T21:12:21.905Z,42.96
2023-02-09T21:14:51.140Z,42.59
2023-02-09T21:17:19.904Z,43.17
2023-02-09T21:19:47.186Z,42.93
2023-02-09T21:22:15.830Z,43.17
2023-02-09T21:24:43.213Z,43.06
2023-02-09T21:27:10.348Z,42.95
2023-02-09T21:29:37.623Z,43.62
2023-02-09T21:32:06.973Z,42.88
2023-02-09T21:34:34.390Z,43.61
2023-02-09T21:37:01.587Z,43.69
2023-02-09T21:39:28.814Z,43.70
2023-02-09T21:42:14.533Z,44.02
2023-02-09T21:44:41.815Z,43.56
2023-02-09T21:47:09.331Z,43.70
2023-02-09T21:49:36.811Z,43.83
2023-02-09T21:52:04.097Z,44.08
2023-02-09T21:54:34.073Z,44.04
2023-02-09T21:57:02.066Z,43.71
2023-02-09T21:59:30.100Z,44.15
2023-02-09T22:01:57.294Z,45.27
2023-02-09T22:04:24.617Z,44.53
2023-02-09T22:06:52.091Z,45.38
2023-02-09T22:09:20.705Z,45.21
2023-02-09T22:11:47.888Z,44.68
2023-02-09T22:14:15.170Z,45.00
2023-02-09T22:16:42.832Z,45.07
2023-02-09T22:19:10.258Z,44.62
2023-02-09T22:21:37.535Z,44.91
2023-02-09T22:24:05.069Z,45.38
2023-02-09T22:26:32.335Z,44.92
2023-02-09T22:28:59.648Z,44.93
2023-02-09T22:31:27.010Z,45.32
2023-02-09T22:33:54.730Z,45.49
2023-02-09T22:36:23.655Z,44.96
2023-02-09T22:38:51.770Z,44.88
2023-02-09T22:41:23.167Z,45.46
2023-02-09T22:44:17.293Z,45.81
2023-02-09T22:46:45.690Z,45.44
2023-02-09T22:49:18.724Z,46.10
2023-02-09T22:51:47.609Z,45.64
2023-02-09T22:54:17.217Z,45.84
2023-02-09T22:56:44.941Z,45.79
2023-02-09T22:59:13.858Z,46.40
2023-02-09T23:01:41.400Z,46.49
2023-02-09T23:04:08.965Z,46.36
2023-02-09T23:06:36.267Z,46.08
2023-02-09T23:09:05.977Z,46.32
2023-02-09T23:11:33.700Z,45.65
2023-02-09T23:14:10.776Z,46.00
2023-02-09T23:16:40.237Z,46.51
2023-02-09T23:19:09.623Z,46.53
2023-02-09T23:21:39.661Z,46.16
2023-02-09T23:24:07.387Z,46.53
2023-02-09T23:26:35.320Z,46.51
2023-02-09T23:29:05.302Z,46.98
2023-02-09T23:31:33.299Z,46.40
2023-02-09T23:34:00.789Z,46.48
2023-02-09T23:36:30.654Z,46.51
2023-02-09T23:39:04.067Z,46.53
2023-02-09T23:41:31.457Z,46.45
2023-02-09T23:43:59.020Z,46.61
2023-02-09T23:46:28.959Z,47.02
2023-02-09T23:48:57.180Z,46.50
2023-02-09T23:51:26.895Z,47.29
2023-02-09T23:53:55.860Z,46.78
2023-02-09T23:56:24.056Z,47.05
2023-02-09T23:58:52.014Z,47.19
